createdAt,value
2023-03-05T00:00:02.958Z,1017.35
2023-03-05T00:05:03.597Z,1017.3
2023-03-05T00:10:03.271Z,1017.21
2023-03-05T00:15:03.231Z,1017.17
2023-03-05T00:20:03.169Z,1017.13
2023-03-05T00:25:02.728Z,1017.18
2023-03-05T00:30:03.506Z,1017.09
2023-03-05T00:35:03.450Z,1017.04
2023-03-05T00:40:03.279Z,1017.09
2023-03-05T00:45:03.655Z,1016.98
2023-03-05T00:50:03.338Z,1016.91
2023-03-05T00:55:03.059Z,1016.91
2023-03-05T01:00:02.789Z,1016.93
2023-03-05T01:05:03.713Z,1016.78
2023-03-05T01:10:03.257Z,1016.79
2023-03-05T01:15:03.267Z,1016.75
2023-03-05T01:20:02.763Z,1016.73
2023-03-05T01:25:03.470Z,1016.68
2023-03-05T01:30:03.212Z,1016.66
2023-03-05T01:35:02.949Z,1016.52
2023-03-05T01:40:02.818Z,1016.54
2023-03-05T01:45:03.603Z,1016.45
2023-03-05T01:50:03.288Z,1016.41
2023-03-05T01:55:03.778Z,1016.42
2023-03-05T02:00:02.675Z,1016.4
2023-03-05T02:05:03.572Z,1016.34
2023-03-05T02:10:03.472Z,1016.31
2023-03-05T02:15:03.697Z,1016.26
2023-03-05T02:20:03.403Z,1016.26
2023-03-05T02:25:03.147Z,1016.22
2023-03-05T02:30:02.836Z,1016.15
2023-03-05T02:35:03.564Z,1016.12
2023-03-05T02:40:03.173Z,1016.01
2023-03-05T02:45:03.012Z,1015.91
2023-03-05T02:50:02.861Z,1015.89
2023-03-05T02:55:04.048Z,1015.93
2023-03-05T03:00:03.506Z,1015.8
2023-03-05T03:05:02.934Z,1015.81
2023-03-05T03:10:03.603Z,1015.81
2023-03-05T03:15:03.557Z,1015.83
2023-03-05T03:20:03.498Z,1015.82
2023-03-05T03:25:03.219Z,1015.82
2023-03-05T03:30:03.283Z,1015.63
2023-03-05T03:35:03.378Z,1015.64
2023-03-05T03:40:02.968Z,1015.55
2023-03-05T03:45:03.083Z,1015.5
2023-03-05T03:50:03.472Z,1015.38
2023-03-05T03:55:03.889Z,1015.41
2023-03-05T04:00:03.240Z,1015.36
2023-03-05T04:05:02.778Z,1015.36
2023-03-05T04:10:03.466Z,1015.37
2023-03-05T04:15:02.928Z,1015.35
2023-03-05T04:20:02.911Z,1015.34
2023-03-05T04:25:02.756Z,1015.26
2023-03-05T04:30:03.549Z,1015.24
2023-03-05T04:35:03.359Z,1015.2
2023-03-05T04:40:03.194Z,1015.07
2023-03-05T04:45:02.918Z,1015.01
2023-03-05T04:50:03.556Z,1014.98
2023-03-05T04:55:03.451Z,1014.94
2023-03-05T05:00:02.953Z,1014.94
2023-03-05T05:05:02.817Z,1014.94
2023-03-05T05:10:02.816Z,1014.9
2023-03-05T05:15:03.670Z,1014.79
2023-03-05T05:20:03.375Z,1014.83
2023-03-05T05:25:03.565Z,1014.74
2023-03-05T05:30:03.592Z,1014.82
2023-03-05T05:35:03.062Z,1014.8
2023-03-05T05:40:02.811Z,1014.7
2023-03-05T05:45:02.809Z,1014.74
2023-03-05T05:50:02.691Z,1014.68
2023-03-05T05:55:03.904Z,1014.72
2023-03-05T06:00:03.449Z,1014.76
2023-03-05T06:05:03.138Z,1014.72
2023-03-05T06:10:02.797Z,1014.81
2023-03-05T06:15:03.687Z,1014.76
2023-03-05T06:20:03.354Z,1014.76
2023-03-05T06:25:03.317Z,1014.63
2023-03-05T06:30:02.910Z,1014.63
2023-03-05T06:35:03.613Z,1014.68
2023-03-05T06:40:03.480Z,1014.67
2023-03-05T06:45:02.835Z,1014.75
2023-03-05T06:50:02.701Z,1014.69
2023-03-05T06:55:03.540Z,1014.67
2023-03-05T07:00:03.736Z,1014.62
2023-03-05T07:05:03.374Z,1014.67
2023-03-05T07:10:03.158Z,1014.71
2023-03-05T07:15:02.926Z,1014.62
2023-03-05T07:20:02.742Z,1014.56
2023-03-05T07:25:03.799Z,1014.51
2023-03-05T07:30:03.289Z,1014.51
2023-03-05T07:35:03.025Z,1014.51
2023-03-05T07:40:02.718Z,1014.51
2023-03-05T07:45:03.737Z,1014.36
2023-03-05T07:50:03.311Z,1014.4
2023-03-05T07:55:03.095Z,1014.39
2023-03-05T08:00:03.029Z,1014.42
2023-03-05T08:05:03.686Z,1014.35
2023-03-05T08:10:03.497Z,1014.3
2023-03-05T08:15:03.437Z,1014.33
2023-03-05T08:20:03.561Z,1014.28
2023-03-05T08:25:03.154Z,1014.32
2023-03-05T08:30:03.095Z,1014.71
2023-03-05T08:35:03.028Z,1014.66
2023-03-05T08:40:02.694Z,1014.55
2023-03-05T08:45:03.590Z,1014.51
2023-03-05T08:50:03.440Z,1014.5
2023-03-05T08:55:02.989Z,1014.4
2023-03-05T09:00:03.447Z,1014.35
2023-03-05T09:05:03.112Z,1014.21
2023-03-05T09:10:02.739Z,1014.2
2023-03-05T09:15:03.525Z,1014.21
2023-03-05T09:20:03.373Z,1014.02
2023-03-05T09:25:03.088Z,1014.01
2023-03-05T09:30:02.823Z,1013.96
2023-03-05T09:35:03.490Z,1013.95
2023-03-05T09:40:03.411Z,1014.02
2023-03-05T09:45:03.336Z,1013.97
2023-03-05T09:50:03.043Z,1013.93
2023-03-05T10:00:03.667Z,1013.84
2023-03-05T10:05:03.425Z,1013.85
2023-03-05T10:10:03.147Z,1013.7
2023-03-05T10:15:02.930Z,1013.76
2023-03-05T10:20:02.750Z,1013.65
2023-03-05T10:25:03.614Z,1013.62
2023-03-05T10:30:03.386Z,1013.64
2023-03-05T10:35:03.171Z,1013.58
2023-03-05T10:40:03.222Z,1013.6
2023-03-05T10:45:03.078Z,1013.53
2023-03-05T10:50:03.115Z,1013.4
2023-03-05T10:55:03.056Z,1013.34
2023-03-05T11:00:03.616Z,1013.29
2023-03-05T11:05:05.650Z,1013.24
2023-03-05T11:10:03.271Z,1013.09
2023-03-05T11:15:02.904Z,1013.06
2023-03-05T11:20:02.995Z,1013.09
2023-03-05T11:25:02.857Z,1013.04
2023-03-05T11:30:03.771Z,1013.02
2023-03-05T11:35:03.611Z,1012.93
2023-03-05T11:40:03.264Z,1012.83
2023-03-05T11:45:03.294Z,1012.82
2023-03-05T11:50:02.931Z,1012.8
2023-03-05T11:55:03.118Z,1012.74
2023-03-05T12:00:03.864Z,1012.78
2023-03-05T12:05:03.269Z,1012.63
2023-03-05T12:10:03.090Z,1012.58
2023-03-05T12:15:03.286Z,1012.5
2023-03-05T12:20:03.087Z,1012.36
2023-03-05T12:25:02.864Z,1012.37
2023-03-05T12:30:03.642Z,1012.26
2023-03-05T12:35:03.323Z,1012.17
2023-03-05T12:40:03.307Z,1012.13
2023-03-05T12:45:03.090Z,1012.05
2023-03-05T12:50:03.100Z,1011.98
2023-03-05T12:55:03.802Z,1011.85
2023-03-05T13:00:03.460Z,1011.76
2023-03-05T13:05:03.214Z,1011.67
2023-03-05T13:10:02.955Z,1011.66
2023-03-05T13:15:03.007Z,1011.63
2023-03-05T13:20:03.692Z,1011.59
2023-03-05T13:25:03.367Z,1011.65
2023-03-05T13:30:03.283Z,1011.55
2023-03-05T13:35:02.919Z,1011.42
2023-03-05T13:40:03.089Z,1011.5
2023-03-05T13:45:03.077Z,1011.51
2023-03-05T13:50:02.908Z,1011.42
2023-03-05T13:55:03.328Z,1011.42
2023-03-05T14:00:02.821Z,1011.36
2023-03-05T14:05:04.130Z,1011.39
2023-03-05T14:10:03.313Z,1011.44
2023-03-05T14:15:03.268Z,1011.42
2023-03-05T14:20:03.010Z,1011.28
2023-03-05T14:25:02.712Z,1011.27
2023-03-05T14:30:03.552Z,1011.15
2023-03-05T14:35:03.224Z,1011.07
2023-03-05T14:40:02.887Z,1010.98
2023-03-05T14:45:03.689Z,1011
2023-03-05T14:50:03.354Z,1010.93
2023-03-05T14:55:03.776Z,1010.84
2023-03-05T15:00:03.339Z,1010.85
2023-03-05T15:05:03.166Z,1010.74
2023-03-05T15:10:03.040Z,1010.75
2023-03-05T15:15:03.501Z,1010.77
2023-03-05T15:20:03.378Z,1010.77
2023-03-05T15:25:03.014Z,1010.67
2023-03-05T15:30:02.786Z,1010.64
2023-03-05T15:35:02.728Z,1010.59
2023-03-05T15:40:03.712Z,1010.58
2023-03-05T15:45:03.312Z,1010.55
2023-03-05T15:50:03.379Z,1010.6
2023-03-05T15:55:03.637Z,1010.6
2023-03-05T16:00:03.068Z,1010.61
2023-03-05T16:05:02.756Z,1010.67
2023-03-05T16:10:03.514Z,1010.57
2023-03-05T16:15:03.538Z,1010.59
2023-03-05T16:20:03.684Z,1010.46
2023-03-05T16:25:03.010Z,1010.6
2023-03-05T16:30:02.770Z,1010.69
2023-03-05T16:35:03.620Z,1010.63
2023-03-05T16:40:03.566Z,1010.6
2023-03-05T16:45:02.879Z,1010.61
2023-03-05T16:50:03.226Z,1010.61
2023-03-05T16:55:03.688Z,1010.66
2023-03-05T17:00:03.373Z,1010.76
2023-03-05T17:05:02.893Z,1010.66
2023-03-05T17:10:03.575Z,1010.7
2023-03-05T17:15:03.578Z,1010.7
2023-03-05T17:20:03.445Z,1010.71
2023-03-05T17:25:03.016Z,1010.65
2023-03-05T17:30:02.849Z,1010.61
2023-03-05T17:35:06.050Z,1010.7
2023-03-05T17:40:03.362Z,1010.74
2023-03-05T17:45:03.233Z,1010.68
2023-03-05T17:50:02.972Z,1010.77
2023-03-05T17:55:02.905Z,1010.82
2023-03-05T18:00:03.633Z,1010.8
2023-03-05T18:05:04.814Z,1010.73
2023-03-05T18:10:03.420Z,1010.73
2023-03-05T18:15:02.902Z,1010.62
2023-03-05T18:20:04.643Z,1010.57
2023-03-05T18:25:03.033Z,1010.41
2023-03-05T18:30:02.781Z,1010.28
2023-03-05T18:35:03.486Z,1010.22
2023-03-05T18:40:03.168Z,1010.3
2023-03-05T18:45:03.709Z,1010.25
2023-03-05T18:50:03.202Z,1010.17
2023-03-05T18:55:02.946Z,1010.07
2023-03-05T19:00:03.794Z,1010.19
2023-03-05T19:05:03.614Z,1010.14
2023-03-05T19:10:03.203Z,1010.16
2023-03-05T19:15:02.905Z,1010.01
2023-03-05T19:20:02.678Z,1010
2023-03-05T19:25:03.615Z,1009.95
2023-03-05T19:30:03.370Z,1009.93
2023-03-05T19:35:03.149Z,1009.88
2023-03-05T19:40:03.034Z,1009.88
2023-03-05T19:45:03.672Z,1009.94
2023-03-05T19:50:03.368Z,1009.88
2023-03-05T19:55:03.189Z,1009.83
2023-03-05T20:00:02.951Z,1009.78
2023-03-05T20:05:02.945Z,1009.74
2023-03-05T20:10:03.194Z,1009.7
2023-03-05T20:15:03.673Z,1009.63
2023-03-05T20:20:03.512Z,1009.62
2023-03-05T20:25:03.281Z,1009.58
2023-03-05T20:30:03.523Z,1009.5
2023-03-05T20:35:03.278Z,1009.5
2023-03-05T20:40:03.014Z,1009.58
2023-03-05T20:45:02.756Z,1009.52
2023-03-05T20:50:03.546Z,1009.45
2023-03-05T20:55:03.382Z,1009.38
2023-03-05T21:00:03.307Z,1009.37
2023-03-05T21:05:02.976Z,1009.33
2023-03-05T21:10:03.773Z,1009.24
2023-03-05T21:15:03.410Z,1009.13
2023-03-05T21:20:03.359Z,1009.09
2023-03-05T21:25:03.022Z,1009.08
2023-03-05T21:30:03.411Z,1009.09
2023-03-05T21:35:03.678Z,1008.89
2023-03-05T21:40:03.389Z,1008.92
2023-03-05T21:45:03.803Z,1008.89
2023-03-05T21:50:03.329Z,1008.8
2023-03-05T21:55:03.023Z,1008.74
2023-03-05T22:00:02.831Z,1008.71
2023-03-05T22:05:03.135Z,1008.55
2023-03-05T22:10:03.294Z,1008.44
2023-03-05T22:15:03.295Z,1008.44
2023-03-05T22:20:03.500Z,1008.39
2023-03-05T22:25:03.105Z,1008.31
2023-03-05T22:30:02.871Z,1008.27
2023-03-05T22:35:02.769Z,1008.33
2023-03-05T22:40:03.639Z,1008.21
2023-03-05T22:45:03.392Z,1008.21
2023-03-05T22:50:03.248Z,1008.19
2023-03-05T22:55:03.471Z,1008.02
2023-03-05T23:00:02.777Z,1007.98
2023-03-05T23:05:03.278Z,1008.05
2023-03-05T23:10:02.975Z,1007.85
2023-03-05T23:15:02.880Z,1007.83
2023-03-05T23:20:02.756Z,1007.87
2023-03-05T23:25:03.404Z,1007.82
2023-03-05T23:30:03.135Z,1007.68
2023-03-05T23:35:02.856Z,1007.6
2023-03-05T23:40:02.691Z,1007.67
2023-03-05T23:45:03.401Z,1007.59
2023-03-05T23:50:03.150Z,1007.58
2023-03-05T23:55:03.346Z,1007.57
